createdAt,value
2017-11-14T00:00:00.269Z,8.30
2017-11-14T00:02:26.518Z,9.80
2017-11-14T00:04:53.154Z,8.32
2017-11-14T00:07:20.187Z,11.43
2017-11-14T00:09:46.388Z,10.73
2017-11-14T00:12:12.691Z,8.98
2017-11-14T00:14:38.927Z,10.32
2017-11-14T00:17:05.126Z,9.88
2017-11-14T00:19:31.788Z,7.97
2017-11-14T00:21:58.011Z,8.60
2017-11-14T00:24:24.243Z,8.15
2017-11-14T00:26:50.453Z,8.02
2017-11-14T00:29:16.704Z,8.25
2017-11-14T00:31:42.916Z,7.70
2017-11-14T00:34:09.125Z,7.65
2017-11-14T00:36:35.739Z,7.50
2017-11-14T00:39:02.015Z,8.05
2017-11-14T00:41:28.253Z,7.10
2017-11-14T00:43:54.480Z,8.45
2017-11-14T00:46:20.719Z,8.15
2017-11-14T00:48:46.936Z,7.55
2017-11-14T00:51:13.149Z,8.77
2017-11-14T00:53:39.380Z,6.90
2017-11-14T00:56:05.606Z,7.90
2017-11-14T00:58:31.813Z,8.57
2017-11-14T01:00:58.430Z,7.25
2017-11-14T01:03:24.641Z,9.43
2017-11-14T01:05:50.885Z,8.02
2017-11-14T01:08:17.076Z,8.23
2017-11-14T01:10:43.566Z,7.18
2017-11-14T01:13:10.156Z,7.87
2017-11-14T01:15:36.387Z,7.90
2017-11-14T01:18:02.615Z,7.80
2017-11-14T01:20:28.840Z,7.28
2017-11-14T01:22:55.073Z,8.05
2017-11-14T01:25:22.317Z,7.85
2017-11-14T01:27:48.529Z,8.82
2017-11-14T01:30:14.752Z,9.40
2017-11-14T01:32:41.001Z,9.52
2017-11-14T01:35:07.240Z,8.70
2017-11-14T01:37:33.455Z,9.90
2017-11-14T01:39:59.685Z,10.23
2017-11-14T01:42:25.918Z,9.80
2017-11-14T01:44:52.187Z,9.95
2017-11-14T01:47:18.454Z,9.40
2017-11-14T01:49:44.689Z,10.18
2017-11-14T01:52:11.263Z,10.02
2017-11-14T01:54:37.487Z,10.00
2017-11-14T01:57:03.724Z,8.68
2017-11-14T01:59:29.981Z,9.35
2017-11-14T02:01:56.210Z,8.80
2017-11-14T02:04:22.463Z,9.23
2017-11-14T02:06:48.704Z,9.25
2017-11-14T02:09:14.967Z,9.05
2017-11-14T02:11:41.198Z,8.30
2017-11-14T02:14:07.434Z,7.87
2017-11-14T02:16:33.702Z,7.50
2017-11-14T02:18:59.931Z,8.93
2017-11-14T02:21:26.186Z,6.97
2017-11-14T02:23:52.435Z,6.93
2017-11-14T02:26:18.692Z,7.85
2017-11-14T02:28:45.356Z,6.75
2017-11-14T02:31:11.585Z,7.05
2017-11-14T02:33:37.843Z,6.68
2017-11-14T02:36:04.390Z,7.43
2017-11-14T02:38:30.650Z,7.05
2017-11-14T02:40:57.267Z,7.20
2017-11-14T02:43:23.540Z,7.00
2017-11-14T02:45:49.802Z,6.43
2017-11-14T02:48:16.069Z,6.72
2017-11-14T02:50:42.301Z,6.45
2017-11-14T02:53:08.552Z,6.80
2017-11-14T02:55:34.771Z,6.53
2017-11-14T02:58:01.045Z,6.62
2017-11-14T03:00:27.314Z,6.72
2017-11-14T03:02:53.919Z,6.53
2017-11-14T03:05:20.197Z,6.00
2017-11-14T03:07:46.401Z,6.53
2017-11-14T03:10:12.999Z,6.75
2017-11-14T03:12:39.246Z,6.25
2017-11-14T03:15:05.451Z,7.03
2017-11-14T03:17:31.694Z,6.15
2017-11-14T03:19:57.925Z,6.78
2017-11-14T03:22:24.446Z,6.95
2017-11-14T03:24:50.700Z,7.05
2017-11-14T03:27:16.908Z,5.62
2017-11-14T03:29:43.164Z,6.40
2017-11-14T03:32:09.406Z,7.18
2017-11-14T03:34:35.699Z,5.78
2017-11-14T03:37:01.940Z,6.37
2017-11-14T03:39:28.438Z,7.00
2017-11-14T03:41:54.681Z,7.22
2017-11-14T03:44:20.916Z,6.62
2017-11-14T03:46:47.208Z,7.78
2017-11-14T03:49:13.439Z,6.80
2017-11-14T03:51:39.695Z,7.18
2017-11-14T03:54:05.954Z,6.55
2017-11-14T03:56:32.853Z,6.20
2017-11-14T03:58:59.111Z,7.07
2017-11-14T04:01:25.338Z,7.18
2017-11-14T04:03:51.962Z,6.62
2017-11-14T04:06:18.258Z,7.47
2017-11-14T04:08:44.506Z,7.78
2017-11-14T04:11:10.773Z,6.97
2017-11-14T04:13:37.032Z,7.40
2017-11-14T04:16:03.258Z,7.03
2017-11-14T04:18:30.082Z,7.40
2017-11-14T04:20:56.674Z,7.85
2017-11-14T04:23:22.927Z,8.88
2017-11-14T04:25:49.135Z,7.37
2017-11-14T04:28:15.376Z,8.88
2017-11-14T04:30:41.603Z,9.02
2017-11-14T04:33:07.828Z,8.32
2017-11-14T04:35:34.472Z,8.15
2017-11-14T04:38:00.667Z,8.35
2017-11-14T04:40:26.882Z,8.75
2017-11-14T04:42:53.154Z,8.00
2017-11-14T04:45:19.375Z,8.77
2017-11-14T04:47:45.591Z,8.65
2017-11-14T04:50:12.090Z,8.48
2017-11-14T04:52:38.314Z,8.75
2017-11-14T04:55:04.534Z,8.20
2017-11-14T04:57:31.122Z,8.40
2017-11-14T04:59:57.350Z,8.48
2017-11-14T05:02:23.581Z,7.85
2017-11-14T05:04:49.777Z,8.35
2017-11-14T05:07:15.990Z,8.68
2017-11-14T05:09:42.193Z,9.05
2017-11-14T05:12:08.424Z,8.65
2017-11-14T05:14:34.651Z,9.00
2017-11-14T05:17:01.257Z,7.80
2017-11-14T05:19:27.470Z,8.05
2017-11-14T05:21:53.701Z,8.63
2017-11-14T05:24:19.901Z,7.78
2017-11-14T05:26:46.137Z,7.68
2017-11-14T05:29:12.364Z,8.52
2017-11-14T05:31:38.589Z,8.15
2017-11-14T05:34:04.828Z,7.47
2017-11-14T05:36:31.046Z,7.70
2017-11-14T05:38:57.320Z,7.00
2017-11-14T05:41:23.516Z,6.72
2017-11-14T05:43:49.711Z,7.90
2017-11-14T05:46:15.971Z,8.10
2017-11-14T05:48:42.185Z,7.10
2017-11-14T05:51:08.407Z,6.87
2017-11-14T05:53:34.641Z,7.05
2017-11-14T05:56:00.907Z,6.93
2017-11-14T05:58:27.147Z,8.18
2017-11-14T06:00:53.376Z,8.38
2017-11-14T06:03:19.622Z,7.30
2017-11-14T06:05:45.831Z,7.10
2017-11-14T06:08:12.066Z,7.43
2017-11-14T06:10:38.275Z,8.15
2017-11-14T06:13:04.529Z,7.95
2017-11-14T06:15:31.178Z,8.05
2017-11-14T06:17:57.394Z,7.87
2017-11-14T06:20:24.042Z,6.68
2017-11-14T06:22:50.279Z,7.30
2017-11-14T06:25:16.504Z,7.72
2017-11-14T06:27:42.739Z,7.28
2017-11-14T06:30:08.954Z,8.50
2017-11-14T06:32:35.562Z,8.30
2017-11-14T06:35:01.778Z,8.38
2017-11-14T06:37:28.429Z,9.40
2017-11-14T06:39:54.663Z,9.32
2017-11-14T06:42:20.884Z,9.43
2017-11-14T06:44:47.111Z,8.57
2017-11-14T06:47:13.329Z,9.85
2017-11-14T06:49:39.594Z,8.65
2017-11-14T06:52:06.180Z,10.45
2017-11-14T06:54:32.395Z,11.35
2017-11-14T06:56:58.650Z,11.20
2017-11-14T06:59:24.872Z,10.43
2017-11-14T07:01:51.117Z,12.02
2017-11-14T07:04:17.335Z,11.57
2017-11-14T07:06:43.586Z,13.98
2017-11-14T07:09:10.171Z,12.37
2017-11-14T07:11:36.393Z,11.95
2017-11-14T07:14:02.658Z,12.90
2017-11-14T07:16:28.867Z,13.98
2017-11-14T07:18:55.081Z,11.90
2017-11-14T07:21:21.322Z,13.18
2017-11-14T07:23:47.605Z,15.57
2017-11-14T07:26:14.193Z,14.60
2017-11-14T07:28:40.397Z,13.68
2017-11-14T07:31:06.652Z,13.57
2017-11-14T07:33:32.871Z,13.15
2017-11-14T07:35:59.114Z,13.02
2017-11-14T07:38:25.336Z,13.40
2017-11-14T07:40:51.537Z,14.87
2017-11-14T07:43:18.134Z,14.27
2017-11-14T07:45:44.340Z,12.00
2017-11-14T07:48:10.569Z,13.73
2017-11-14T07:50:36.818Z,11.70
2017-11-14T07:53:03.043Z,12.98
2017-11-14T07:55:29.336Z,12.60
2017-11-14T07:57:55.584Z,13.60
2017-11-14T08:00:21.865Z,13.77
2017-11-14T08:02:48.112Z,14.87
2017-11-14T08:05:14.379Z,16.62
2017-11-14T08:07:40.625Z,17.50
2017-11-14T08:10:06.897Z,17.15
2017-11-14T08:12:33.406Z,15.70
2017-11-14T08:14:59.625Z,15.63
2017-11-14T08:17:25.893Z,17.25
2017-11-14T08:19:52.128Z,17.08
2017-11-14T08:22:18.354Z,18.23
2017-11-14T08:24:44.623Z,17.02
2017-11-14T08:27:10.897Z,16.20
2017-11-14T08:29:37.126Z,17.05
2017-11-14T08:32:03.399Z,17.15
2017-11-14T08:34:29.682Z,15.23
2017-11-14T08:36:55.929Z,14.57
2017-11-14T08:39:22.193Z,16.40
2017-11-14T08:41:48.471Z,14.60
2017-11-14T08:44:14.735Z,14.85
2017-11-14T08:46:40.980Z,17.15
2017-11-14T08:49:08.028Z,14.05
2017-11-14T08:51:34.695Z,20.62
2017-11-14T08:54:00.930Z,16.02
2017-11-14T08:56:27.193Z,16.15
2017-11-14T08:58:53.476Z,14.45
2017-11-14T09:01:19.720Z,20.23
2017-11-14T09:03:45.947Z,15.00
2017-11-14T09:06:12.217Z,15.05
2017-11-14T09:08:38.472Z,13.50
2017-11-14T09:11:05.123Z,14.87
2017-11-14T09:13:31.379Z,14.48
2017-11-14T09:15:57.651Z,16.30
2017-11-14T09:18:23.985Z,14.55
2017-11-14T09:20:50.202Z,16.08
2017-11-14T09:23:16.456Z,12.80
2017-11-14T09:25:43.062Z,15.60
2017-11-14T09:28:09.331Z,14.48
2017-11-14T09:30:36.041Z,14.93
2017-11-14T09:33:02.285Z,14.23
2017-11-14T09:35:28.559Z,14.70
2017-11-14T09:37:54.832Z,15.07
2017-11-14T09:40:21.073Z,15.90
2017-11-14T09:42:47.725Z,15.00
2017-11-14T09:45:13.998Z,15.55
2017-11-14T09:47:40.230Z,14.63
2017-11-14T09:50:06.478Z,14.50
2017-11-14T09:52:32.746Z,12.82
2017-11-14T09:54:59.018Z,14.98
2017-11-14T09:57:25.275Z,14.68
2017-11-14T09:59:51.901Z,16.40
2017-11-14T10:02:18.173Z,17.73
2017-11-14T10:04:44.407Z,15.35
2017-11-14T10:07:10.940Z,18.87
2017-11-14T10:09:37.204Z,20.60
2017-11-14T10:12:03.468Z,18.50
2017-11-14T10:14:30.117Z,19.02
2017-11-14T10:16:56.718Z,19.70
2017-11-14T10:19:22.993Z,16.95
2017-11-14T10:21:49.254Z,17.50
2017-11-14T10:24:15.498Z,19.85
2017-11-14T10:26:41.755Z,16.50
2017-11-14T10:29:07.985Z,17.50
2017-11-14T10:31:34.236Z,16.50
2017-11-14T10:34:00.484Z,15.88
2017-11-14T10:36:26.743Z,14.35
2017-11-14T10:38:53.022Z,15.38
2017-11-14T10:41:19.307Z,14.63
2017-11-14T10:43:45.541Z,15.13
2017-11-14T10:46:11.812Z,16.50
2017-11-14T10:48:38.070Z,18.08
2017-11-14T10:51:04.345Z,16.70
2017-11-14T10:53:30.951Z,17.05
2017-11-14T10:55:57.216Z,18.35
2017-11-14T10:58:23.861Z,15.60
2017-11-14T11:00:50.507Z,16.73
2017-11-14T11:03:16.750Z,16.08
2017-11-14T11:05:42.985Z,14.77
2017-11-14T11:08:09.240Z,17.40
2017-11-14T11:10:35.502Z,15.45
2017-11-14T11:13:01.774Z,17.70
2017-11-14T11:15:28.086Z,17.80
2017-11-14T11:17:54.334Z,21.25
2017-11-14T11:20:20.577Z,16.73
2017-11-14T11:22:47.690Z,16.55
2017-11-14T11:25:13.953Z,19.05
2017-11-14T11:27:40.214Z,16.35
2017-11-14T11:30:06.852Z,17.00
2017-11-14T11:32:33.155Z,16.77
2017-11-14T11:34:59.427Z,18.77
2017-11-14T11:37:25.699Z,18.35
2017-11-14T11:39:51.972Z,17.85
2017-11-14T11:42:18.614Z,20.00
2017-11-14T11:44:45.260Z,17.12
2017-11-14T11:47:11.884Z,19.00
2017-11-14T11:49:38.526Z,18.83
2017-11-14T11:52:05.138Z,16.87
2017-11-14T11:54:31.406Z,18.05
2017-11-14T11:56:57.652Z,17.58
2017-11-14T11:59:23.904Z,17.12
2017-11-14T12:01:50.186Z,18.52
2017-11-14T12:04:16.481Z,16.80
2017-11-14T12:06:42.771Z,19.23
2017-11-14T12:09:09.011Z,17.77
2017-11-14T12:11:35.278Z,19.33
2017-11-14T12:14:01.549Z,19.05
2017-11-14T12:16:27.781Z,18.00
2017-11-14T12:18:54.051Z,22.70
2017-11-14T12:21:20.429Z,22.98
2017-11-14T12:23:46.695Z,22.48
2017-11-14T12:26:12.999Z,24.15
2017-11-14T12:28:39.249Z,25.23
2017-11-14T12:31:05.556Z,24.30
2017-11-14T12:33:31.810Z,26.73
2017-11-14T12:35:58.072Z,23.15
2017-11-14T12:38:24.325Z,22.40
2017-11-14T12:40:50.571Z,20.45
2017-11-14T12:43:16.825Z,21.77
2017-11-14T12:45:43.068Z,22.33
2017-11-14T12:48:09.310Z,19.50
2017-11-14T12:50:35.562Z,20.12
2017-11-14T12:53:01.815Z,18.98
2017-11-14T12:55:28.083Z,17.58
2017-11-14T12:57:54.341Z,19.98
2017-11-14T13:00:20.976Z,19.02
2017-11-14T13:02:47.587Z,19.55
2017-11-14T13:05:13.830Z,16.55
2017-11-14T13:07:40.109Z,16.05
2017-11-14T13:10:06.353Z,16.87
2017-11-14T13:12:32.647Z,17.20
2017-11-14T13:14:58.921Z,16.20
2017-11-14T13:17:25.189Z,16.30
2017-11-14T13:19:51.803Z,17.12
2017-11-14T13:22:18.033Z,16.77
2017-11-14T13:24:44.669Z,17.62
2017-11-14T13:27:10.931Z,17.50
2017-11-14T13:29:37.180Z,17.35
2017-11-14T13:32:03.494Z,16.17
2017-11-14T13:34:30.871Z,17.20
2017-11-14T13:36:57.127Z,17.60
2017-11-14T13:39:23.336Z,15.52
2017-11-14T13:41:49.570Z,17.30
2017-11-14T13:44:15.795Z,15.65
2017-11-14T13:46:42.079Z,13.80
2017-11-14T13:49:08.734Z,15.40
2017-11-14T13:51:34.962Z,13.70
2017-11-14T13:54:01.222Z,14.27
2017-11-14T13:56:27.457Z,14.77
2017-11-14T13:58:53.671Z,15.90
2017-11-14T14:01:20.005Z,14.87
2017-11-14T14:03:46.294Z,14.25
2017-11-14T14:06:12.580Z,15.65
2017-11-14T14:08:38.873Z,14.90
2017-11-14T14:11:05.075Z,14.35
2017-11-14T14:13:31.657Z,15.23
2017-11-14T14:15:57.882Z,14.13
2017-11-14T14:18:24.099Z,15.02
2017-11-14T14:20:50.351Z,13.57
2017-11-14T14:23:16.599Z,14.10
2017-11-14T14:25:42.904Z,14.70
2017-11-14T14:28:09.141Z,15.00
2017-11-14T14:30:35.385Z,15.10
2017-11-14T14:33:01.764Z,14.25
2017-11-14T14:35:28.056Z,13.68
2017-11-14T14:37:54.375Z,15.27
2017-11-14T14:40:21.482Z,14.45
2017-11-14T14:42:48.080Z,16.10
2017-11-14T14:45:15.255Z,13.48
2017-11-14T14:47:41.494Z,13.80
2017-11-14T14:50:07.777Z,12.15
2017-11-14T14:52:34.032Z,13.60
2017-11-14T14:55:00.481Z,12.68
2017-11-14T14:57:26.715Z,13.45
2017-11-14T14:59:52.937Z,12.75
2017-11-14T15:02:19.179Z,13.85
2017-11-14T15:04:45.419Z,13.25
2017-11-14T15:07:11.652Z,14.85
2017-11-14T15:09:37.893Z,13.07
2017-11-14T15:12:04.121Z,14.75
2017-11-14T15:14:30.414Z,12.93
2017-11-14T15:16:56.651Z,13.23
2017-11-14T15:19:22.987Z,12.30
2017-11-14T15:21:49.312Z,13.48
2017-11-14T15:24:15.664Z,12.63
2017-11-14T15:26:41.924Z,11.50
2017-11-14T15:29:08.381Z,12.68
2017-11-14T15:31:35.698Z,13.05
2017-11-14T15:34:01.941Z,13.77
2017-11-14T15:36:28.553Z,12.00
2017-11-14T15:38:54.822Z,13.10
2017-11-14T15:41:21.112Z,12.52
2017-11-14T15:43:47.326Z,13.62
2017-11-14T15:46:13.585Z,13.05
2017-11-14T15:48:39.812Z,12.70
2017-11-14T15:51:06.779Z,11.73
2017-11-14T15:53:33.055Z,12.52
2017-11-14T15:55:59.300Z,14.35
2017-11-14T15:58:25.588Z,12.05
2017-11-14T16:00:51.872Z,12.35
2017-11-14T16:03:18.144Z,13.43
2017-11-14T16:05:44.378Z,13.50
2017-11-14T16:08:11.073Z,12.68
2017-11-14T16:10:37.347Z,13.73
2017-11-14T16:13:03.609Z,11.80
2017-11-14T16:15:29.955Z,12.88
2017-11-14T16:17:56.189Z,12.52
2017-11-14T16:20:22.443Z,12.70
2017-11-14T16:22:49.043Z,12.60
2017-11-14T16:25:15.330Z,11.90
2017-11-14T16:27:41.698Z,13.07
2017-11-14T16:30:07.961Z,13.57
2017-11-14T16:32:34.881Z,12.65
2017-11-14T16:35:01.186Z,12.93
2017-11-14T16:37:28.375Z,12.60
2017-11-14T16:39:55.040Z,15.85
2017-11-14T16:42:21.562Z,16.37
2017-11-14T16:44:48.194Z,14.93
2017-11-14T16:47:14.801Z,13.52
2017-11-14T16:49:41.090Z,14.32
2017-11-14T16:52:07.351Z,13.77
2017-11-14T16:54:33.621Z,12.95
2017-11-14T16:56:59.895Z,11.85
2017-11-14T16:59:26.150Z,12.20
2017-11-14T17:01:52.428Z,11.52
2017-11-14T17:04:18.693Z,12.98
2017-11-14T17:06:44.969Z,14.95
2017-11-14T17:09:11.189Z,15.85
2017-11-14T17:11:37.461Z,14.93
2017-11-14T17:14:03.769Z,15.93
2017-11-14T17:16:30.050Z,18.77
2017-11-14T17:18:56.312Z,18.20
2017-11-14T17:21:22.935Z,15.73
2017-11-14T17:23:50.176Z,15.85
2017-11-14T17:26:16.437Z,15.13
2017-11-14T17:28:42.691Z,14.82
2017-11-14T17:31:08.965Z,16.85
2017-11-14T17:33:35.214Z,16.17
2017-11-14T17:36:01.831Z,15.68
2017-11-14T17:38:28.052Z,15.75
2017-11-14T17:40:54.299Z,14.60
2017-11-14T17:43:20.926Z,15.90
2017-11-14T17:45:47.185Z,15.13
2017-11-14T17:48:13.448Z,13.90
2017-11-14T17:50:39.687Z,15.07
2017-11-14T17:53:05.901Z,15.45
2017-11-14T17:55:32.148Z,24.42
2017-11-14T17:57:58.391Z,17.12
2017-11-14T18:00:24.714Z,16.15
2017-11-14T18:02:50.915Z,17.15
2017-11-14T18:05:17.207Z,16.87
2017-11-14T18:07:44.408Z,16.77
2017-11-14T18:10:10.645Z,18.73
2017-11-14T18:12:36.950Z,19.35
2017-11-14T18:15:03.213Z,16.90
2017-11-14T18:17:29.713Z,16.95
2017-11-14T18:19:55.968Z,15.93
2017-11-14T18:22:22.227Z,17.67
2017-11-14T18:24:48.542Z,15.57
2017-11-14T18:27:14.786Z,18.55
2017-11-14T18:29:41.115Z,15.55
2017-11-14T18:32:07.742Z,17.75
2017-11-14T18:34:34.372Z,18.20
2017-11-14T18:37:01.250Z,15.65
2017-11-14T18:39:27.580Z,15.50
2017-11-14T18:41:53.933Z,12.10
2017-11-14T18:44:20.169Z,13.27
2017-11-14T18:46:46.430Z,15.13
2017-11-14T18:49:12.776Z,18.73
2017-11-14T18:51:39.084Z,16.85
2017-11-14T18:54:05.394Z,14.87
2017-11-14T18:56:31.681Z,13.68
2017-11-14T18:58:58.100Z,16.62
2017-11-14T19:01:25.776Z,16.50
2017-11-14T19:03:52.101Z,16.45
2017-11-14T19:06:18.459Z,15.38
2017-11-14T19:08:44.969Z,15.82
2017-11-14T19:11:12.081Z,17.48
2017-11-14T19:13:38.385Z,14.70
2017-11-14T19:16:04.849Z,16.35
2017-11-14T19:18:31.140Z,14.95
2017-11-14T19:20:57.876Z,16.62
2017-11-14T19:23:24.193Z,15.60
2017-11-14T19:25:50.575Z,15.30
2017-11-14T19:28:16.874Z,14.57
2017-11-14T19:30:43.169Z,16.65
2017-11-14T19:33:09.533Z,16.00
2017-11-14T19:35:36.136Z,14.57
2017-11-14T19:38:02.503Z,15.27
2017-11-14T19:40:30.040Z,17.05
2017-11-14T19:42:56.481Z,15.05
2017-11-14T19:45:24.264Z,14.05
2017-11-14T19:47:51.402Z,17.48
2017-11-14T19:50:17.799Z,16.40
2017-11-14T19:52:44.559Z,15.38
2017-11-14T19:55:11.812Z,15.05
2017-11-14T19:57:38.389Z,15.02
2017-11-14T20:00:04.925Z,14.40
2017-11-14T20:02:31.866Z,16.98
2017-11-14T20:04:58.228Z,15.60
2017-11-14T20:07:24.500Z,21.55
2017-11-14T20:09:51.057Z,18.40
2017-11-14T20:12:17.574Z,19.90
2017-11-14T20:14:43.948Z,17.90
2017-11-14T20:17:10.336Z,17.35
2017-11-14T20:19:36.618Z,16.35
2017-11-14T20:22:02.959Z,16.60
2017-11-14T20:24:29.499Z,15.63
2017-11-14T20:26:56.328Z,17.55
2017-11-14T20:29:23.537Z,17.30
2017-11-14T20:31:50.714Z,19.65
2017-11-14T20:34:17.092Z,16.20
2017-11-14T20:36:43.397Z,17.42
2017-11-14T20:39:10.999Z,16.45
2017-11-14T20:41:37.602Z,20.35
2017-11-14T20:44:03.857Z,18.17
2017-11-14T20:46:30.253Z,15.27
2017-11-14T20:48:57.022Z,17.80
2017-11-14T20:51:24.258Z,16.73
2017-11-14T20:53:51.708Z,18.35
2017-11-14T20:56:19.244Z,16.35
2017-11-14T20:58:46.316Z,15.82
2017-11-14T21:01:13.030Z,17.70
2017-11-14T21:03:39.434Z,17.92
2017-11-14T21:06:05.893Z,16.30
2017-11-14T21:08:32.301Z,16.05
2017-11-14T21:10:59.240Z,18.67
2017-11-14T21:13:25.624Z,18.30
2017-11-14T21:15:52.105Z,16.17
2017-11-14T21:18:18.470Z,18.23
2017-11-14T21:20:44.777Z,18.77
2017-11-14T21:23:11.526Z,19.02
2017-11-14T21:25:38.902Z,22.20
2017-11-14T21:28:05.223Z,21.67
2017-11-14T21:30:31.462Z,20.30
2017-11-14T21:32:58.049Z,19.42
2017-11-14T21:35:24.389Z,20.40
2017-11-14T21:37:50.613Z,18.62
2017-11-14T21:40:16.942Z,19.65
2017-11-14T21:42:43.311Z,21.50
2017-11-14T21:45:09.640Z,20.88
2017-11-14T21:47:35.941Z,23.17
2017-11-14T21:50:02.310Z,19.50
2017-11-14T21:52:29.260Z,19.77
2017-11-14T21:54:55.857Z,18.70
2017-11-14T21:57:22.078Z,21.25
2017-11-14T21:59:48.299Z,21.27
2017-11-14T22:02:14.528Z,17.65
2017-11-14T22:04:41.638Z,20.92
2017-11-14T22:07:07.864Z,21.12
2017-11-14T22:09:34.124Z,20.33
2017-11-14T22:12:00.344Z,19.77
2017-11-14T22:14:26.589Z,21.65
2017-11-14T22:16:52.842Z,22.75
2017-11-14T22:19:19.061Z,23.30
2017-11-14T22:21:45.284Z,20.77
2017-11-14T22:24:11.515Z,21.17
2017-11-14T22:26:37.776Z,20.58
2017-11-14T22:29:04.402Z,22.77
2017-11-14T22:31:30.671Z,19.17
2017-11-14T22:33:56.957Z,20.17
2017-11-14T22:36:23.201Z,20.23
2017-11-14T22:38:49.499Z,19.12
2017-11-14T22:41:16.138Z,18.60
2017-11-14T22:43:42.391Z,21.33
2017-11-14T22:46:08.649Z,21.15
2017-11-14T22:48:34.853Z,18.40
2017-11-14T22:51:02.104Z,20.23
2017-11-14T22:53:28.332Z,18.92
2017-11-14T22:55:54.970Z,19.70
2017-11-14T22:58:21.628Z,19.70
2017-11-14T23:00:47.863Z,19.20
2017-11-14T23:03:14.092Z,20.95
2017-11-14T23:05:40.349Z,19.55
2017-11-14T23:08:06.561Z,22.60
2017-11-14T23:10:32.797Z,22.08
2017-11-14T23:12:59.019Z,19.27
2017-11-14T23:15:25.258Z,20.00
2017-11-14T23:17:51.479Z,18.67
2017-11-14T23:20:17.718Z,18.00
2017-11-14T23:22:43.943Z,17.25
2017-11-14T23:25:10.170Z,18.12
2017-11-14T23:27:36.403Z,17.77
2017-11-14T23:30:02.685Z,19.85
2017-11-14T23:32:29.277Z,18.37
2017-11-14T23:34:55.515Z,21.27
2017-11-14T23:37:21.701Z,20.67
2017-11-14T23:39:47.975Z,16.65
2017-11-14T23:42:14.254Z,16.75
2017-11-14T23:44:40.458Z,16.92
2017-11-14T23:47:07.351Z,19.75
2017-11-14T23:49:33.615Z,16.58
2017-11-14T23:51:59.829Z,18.58
2017-11-14T23:54:26.064Z,21.48
2017-11-14T23:56:52.254Z,17.67
2017-11-14T23:59:18.450Z,18.55
